Aviation Digital Data Service (ADDS)

Output produced by METARs form (0013 UTC 20 April 2019)
found at http://www.aviationweather.gov/metar/data/
 
Forecast for: TBPB (GRANTLEY ADAMS , BB)
Text: TAF TBPB 192300Z 2000/2024 09018KT 9999 SCT018
Forecast period: 0000 UTC 20 April 2019 to 0000 UTC 21 April 2019
Forecast type: FROM: standard forecast or significant change
Winds: from the E (90 degrees) at 21 MPH (18 knots; 9.3 m/s)
Visibility: 6 or more miles 10+ km)
Ceiling: at least 12,000 feet AGL
Clouds: scattered clouds at 1800 feet AGL
Weather: no significant weather forecast for this period